Time;durP1;ratioP1;P1;durP2;ratioP2;P2;SDS_P1;SDS_P2;PMS_P1;PMS_P2;Temp;Humidity;BMP_temperature;BMP_pressure;BME280_temperature;BME280_humidity;BME280_pressure;Samples;Min_cycle;Max_cycle;Signal;HPM_P1;HPM_P2
2020/12/06 00:01:01;;;;;;;29.02;18.50;;;;;;;;;;5115505;28;20066;-78
2020/12/06 00:03:27;;;;;;;32.88;19.67;;;;;;;;;;5116101;28;20078;-78
2020/12/06 00:05:52;;;;;;;29.38;17.45;;;;;;;;;;5119791;28;20032;-79
2020/12/06 00:08:18;;;;;;;29.75;17.95;;;;;;;;;;5119738;28;20526;-78
2020/12/06 00:10:43;;;;;;;25.38;17.20;;;;;;;;;;5120118;28;20038;-78
2020/12/06 00:13:09;;;;;;;26.23;16.90;;;;;;;;;;5122903;28;20031;-79
2020/12/06 00:15:34;;;;;;;26.85;16.98;;;;;;;;;;5121821;28;20371;-78
2020/12/06 00:17:59;;;;;;;29.73;18.95;;;;;;;;;;5122569;28;20046;-79
2020/12/06 00:20:25;;;;;;;27.88;16.83;;;;;;;;;;5122975;28;20401;-78
2020/12/06 00:22:50;;;;;;;28.10;17.13;;;;;;;;;;5123911;28;20062;-79
2020/12/06 00:25:15;;;;;;;25.05;16.73;;;;;;;;;;5122724;28;20084;-78
2020/12/06 00:27:41;;;;;;;30.50;16.85;;;;;;;;;;5123857;28;20035;-79
2020/12/06 00:30:08;;;;;;;27.52;16.77;;;;;;;;;;5122745;28;20043;-79
2020/12/06 00:32:34;;;;;;;23.35;15.63;;;;;;;;;;5122806;28;20095;-79
2020/12/06 00:35:00;;;;;;;25.83;15.55;;;;;;;;;;5122771;28;20059;-78
2020/12/06 00:37:25;;;;;;;25.88;14.40;;;;;;;;;;5121745;28;20381;-78
2020/12/06 00:39:50;;;;;;;18.63;13.55;;;;;;;;;;5122033;28;20054;-78
2020/12/06 00:42:16;;;;;;;22.63;15.13;;;;;;;;;;5121866;28;20167;-78
2020/12/06 00:44:41;;;;;;;27.92;17.75;;;;;;;;;;5121198;28;20056;-78
2020/12/06 00:47:06;;;;;;;30.83;16.67;;;;;;;;;;5098221;28;20048;-78
2020/12/06 00:49:32;;;;;;;28.27;18.23;;;;;;;;;;5099531;28;20034;-78
2020/12/06 00:51:58;;;;;;;27.42;17.88;;;;;;;;;;5100323;28;20028;-78
2020/12/06 00:54:24;;;;;;;29.50;18.60;;;;;;;;;;5098035;28;20075;-78
2020/12/06 00:56:55;;;;;;;30.73;19.77;;;;;;;;;;5098385;28;20036;-78
2020/12/06 00:59:20;;;;;;;30.65;20.05;;;;;;;;;;5100065;28;20055;-78
2020/12/06 01:01:45;;;;;;;28.05;18.10;;;;;;;;;;5099587;28;20028;-78
2020/12/06 01:04:11;;;;;;;28.70;17.00;;;;;;;;;;5098981;28;20051;-78
2020/12/06 01:06:36;;;;;;;26.17;16.45;;;;;;;;;;5098941;28;20032;-78
2020/12/06 01:09:02;;;;;;;24.38;15.98;;;;;;;;;;5097747;28;20114;-77
2020/12/06 01:11:27;;;;;;;30.80;18.63;;;;;;;;;;5097720;28;20036;-77
2020/12/06 01:13:53;;;;;;;32.13;19.75;;;;;;;;;;5097787;28;20521;-78
2020/12/06 01:16:18;;;;;;;25.33;16.60;;;;;;;;;;5097943;28;20027;-77
2020/12/06 01:18:43;;;;;;;27.33;17.88;;;;;;;;;;5098040;28;20036;-78
2020/12/06 01:21:12;;;;;;;23.65;16.20;;;;;;;;;;5096321;28;20044;-78
2020/12/06 01:23:38;;;;;;;26.73;17.02;;;;;;;;;;5098042;28;20036;-78
2020/12/06 01:26:04;;;;;;;25.90;17.00;;;;;;;;;;5097833;28;20032;-78
2020/12/06 01:28:29;;;;;;;25.42;16.25;;;;;;;;;;5098118;28;20032;-77
2020/12/06 01:30:54;;;;;;;28.73;17.13;;;;;;;;;;5097304;28;20491;-77
2020/12/06 01:33:20;;;;;;;30.25;18.27;;;;;;;;;;5095766;28;20112;-77
2020/12/06 01:35:45;;;;;;;31.17;20.10;;;;;;;;;;5097498;28;20036;-78
2020/12/06 01:38:10;;;;;;;26.83;18.15;;;;;;;;;;5097824;28;20462;-77
2020/12/06 01:40:42;;;;;;;27.67;18.00;;;;;;;;;;5095862;28;20635;-78
2020/12/06 01:43:10;;;;;;;24.85;15.77;;;;;;;;;;5096970;28;20048;-78
2020/12/06 01:45:37;;;;;;;23.33;15.82;;;;;;;;;;5097414;28;20200;-77
2020/12/06 01:48:07;;;;;;;22.40;15.15;;;;;;;;;;5096927;28;20020;-78
2020/12/06 01:50:37;;;;;;;26.88;16.80;;;;;;;;;;5097396;28;20085;-78
2020/12/06 01:53:03;;;;;;;26.92;16.88;;;;;;;;;;5097513;28;20084;-77
2020/12/06 01:55:29;;;;;;;25.83;15.85;;;;;;;;;;5097016;28;20032;-78
2020/12/06 01:58:05;;;;;;;20.92;14.70;;;;;;;;;;5097854;28;20028;-78
2020/12/06 02:00:31;;;;;;;23.10;16.20;;;;;;;;;;5097781;28;20046;-78
2020/12/06 02:02:58;;;;;;;26.38;16.80;;;;;;;;;;5097102;28;20040;-78
2020/12/06 02:05:24;;;;;;;25.52;16.80;;;;;;;;;;5097363;28;20028;-78
2020/12/06 02:07:50;;;;;;;24.52;15.75;;;;;;;;;;5097537;28;20658;-78
2020/12/06 02:10:15;;;;;;;23.75;16.25;;;;;;;;;;5097089;28;20043;-78
2020/12/06 02:12:47;;;;;;;27.50;18.05;;;;;;;;;;5097185;28;20052;-78
2020/12/06 02:15:14;;;;;;;29.73;18.13;;;;;;;;;;5096441;28;20054;-78
2020/12/06 02:17:40;;;;;;;33.38;19.23;;;;;;;;;;5081347;28;20036;-77
2020/12/06 02:20:06;;;;;;;27.77;17.67;;;;;;;;;;5076339;28;20036;-78
2020/12/06 02:22:32;;;;;;;26.02;15.90;;;;;;;;;;5076347;28;20052;-78
2020/12/06 02:24:57;;;;;;;25.73;15.80;;;;;;;;;;5076342;28;20045;-77
2020/12/06 02:27:22;;;;;;;24.80;16.23;;;;;;;;;;5076125;28;20107;-78
2020/12/06 02:29:48;;;;;;;27.48;16.80;;;;;;;;;;5076026;28;20478;-77
2020/12/06 02:32:13;;;;;;;25.90;16.17;;;;;;;;;;5075529;28;20094;-77
2020/12/06 02:34:39;;;;;;;25.60;17.75;;;;;;;;;;5074292;28;20032;-77
2020/12/06 02:37:04;;;;;;;23.98;16.50;;;;;;;;;;5075236;28;20080;-77
2020/12/06 02:39:29;;;;;;;24.77;16.05;;;;;;;;;;5075316;28;20033;-77
2020/12/06 02:41:54;;;;;;;25.42;16.98;;;;;;;;;;5075135;28;20036;-77
2020/12/06 02:44:20;;;;;;;26.67;17.25;;;;;;;;;;5074003;28;20090;-77
2020/12/06 02:46:45;;;;;;;25.02;16.35;;;;;;;;;;5081301;28;20086;-78
2020/12/06 02:49:10;;;;;;;26.48;16.10;;;;;;;;;;5095642;28;20101;-77
2020/12/06 02:51:37;;;;;;;28.48;17.10;;;;;;;;;;5078210;28;20035;-78
2020/12/06 02:54:03;;;;;;;23.27;15.57;;;;;;;;;;5096046;28;20039;-78
2020/12/06 02:56:29;;;;;;;25.27;16.20;;;;;;;;;;5093982;28;20024;-77
2020/12/06 02:58:54;;;;;;;26.67;16.40;;;;;;;;;;5095446;28;20056;-78
2020/12/06 03:01:19;;;;;;;21.88;15.00;;;;;;;;;;5095518;28;20039;-77
2020/12/06 03:03:45;;;;;;;23.73;16.15;;;;;;;;;;5093801;28;20040;-77
2020/12/06 03:06:11;;;;;;;22.40;16.83;;;;;;;;;;5095168;28;20043;-78
2020/12/06 03:08:37;;;;;;;26.10;15.00;;;;;;;;;;5095432;28;20044;-77
2020/12/06 03:11:06;;;;;;;23.65;15.25;;;;;;;;;;5094980;28;20051;-77
2020/12/06 03:13:33;;;;;;;21.98;15.05;;;;;;;;;;5095174;28;20032;-77
2020/12/06 03:15:58;;;;;;;22.65;15.57;;;;;;;;;;5094184;28;20028;-77
2020/12/06 03:18:23;;;;;;;26.13;16.90;;;;;;;;;;5094470;28;20396;-77
2020/12/06 03:20:49;;;;;;;27.83;17.55;;;;;;;;;;5094769;28;20111;-77
2020/12/06 03:23:14;;;;;;;22.00;14.73;;;;;;;;;;5093705;28;20039;-78
2020/12/06 03:25:39;;;;;;;23.83;15.88;;;;;;;;;;5095651;28;20036;-78
2020/12/06 03:28:05;;;;;;;24.08;16.55;;;;;;;;;;5097838;28;20075;-78
2020/12/06 03:30:30;;;;;;;22.30;14.02;;;;;;;;;;5097085;28;20493;-78
2020/12/06 03:32:55;;;;;;;21.50;15.18;;;;;;;;;;5096584;28;20035;-78
2020/12/06 03:35:21;;;;;;;22.13;14.93;;;;;;;;;;5096586;28;20135;-78
2020/12/06 03:37:46;;;;;;;25.27;16.05;;;;;;;;;;5096537;28;20036;-78
2020/12/06 03:40:11;;;;;;;22.08;14.98;;;;;;;;;;5095777;28;20497;-78
2020/12/06 03:42:37;;;;;;;25.17;17.05;;;;;;;;;;5096175;28;20044;-77
2020/12/06 03:45:03;;;;;;;28.70;17.88;;;;;;;;;;5093914;28;20119;-78
2020/12/06 03:47:29;;;;;;;26.25;16.95;;;;;;;;;;5095392;28;20416;-78
2020/12/06 03:49:54;;;;;;;25.10;16.25;;;;;;;;;;5095262;28;20069;-78
2020/12/06 03:52:19;;;;;;;28.40;18.15;;;;;;;;;;5094754;28;20039;-77
2020/12/06 03:54:45;;;;;;;27.42;18.60;;;;;;;;;;5093544;28;20374;-77
2020/12/06 03:57:10;;;;;;;26.25;17.23;;;;;;;;;;5094387;28;20046;-78
2020/12/06 03:59:35;;;;;;;35.50;19.15;;;;;;;;;;5094445;28;20506;-77
2020/12/06 04:02:01;;;;;;;28.17;18.80;;;;;;;;;;5092808;28;20050;-77
2020/12/06 04:04:26;;;;;;;27.15;16.88;;;;;;;;;;5094680;28;20040;-78
2020/12/06 04:06:51;;;;;;;31.13;18.83;;;;;;;;;;5093784;28;20038;-78
2020/12/06 04:09:17;;;;;;;28.83;17.58;;;;;;;;;;5094505;28;20060;-77
2020/12/06 04:11:42;;;;;;;26.15;17.92;;;;;;;;;;5094142;28;20071;-78
2020/12/06 04:14:08;;;;;;;26.27;18.23;;;;;;;;;;5094353;28;20071;-77
2020/12/06 04:16:33;;;;;;;23.20;17.02;;;;;;;;;;5108160;28;20077;-77
2020/12/06 04:18:58;;;;;;;24.08;16.50;;;;;;;;;;5113456;28;20042;-77
2020/12/06 04:21:24;;;;;;;23.90;15.52;;;;;;;;;;5114636;28;20058;-78
2020/12/06 04:23:49;;;;;;;24.77;16.38;;;;;;;;;;5114690;28;20031;-77
2020/12/06 04:26:15;;;;;;;27.83;17.83;;;;;;;;;;5096243;28;20092;-77
2020/12/06 04:28:40;;;;;;;24.10;15.48;;;;;;;;;;5113239;28;20040;-77
2020/12/06 04:31:06;;;;;;;23.20;16.27;;;;;;;;;;5114551;28;20082;-77
2020/12/06 04:33:31;;;;;;;21.75;15.35;;;;;;;;;;5112643;28;20036;-78
2020/12/06 04:35:56;;;;;;;24.67;17.23;;;;;;;;;;5114920;28;20036;-77
2020/12/06 04:38:22;;;;;;;25.92;17.00;;;;;;;;;;5114642;28;20035;-78
2020/12/06 04:40:47;;;;;;;23.60;16.70;;;;;;;;;;5114538;28;20032;-77
2020/12/06 04:43:14;;;;;;;21.85;15.27;;;;;;;;;;5114248;28;20028;-77
2020/12/06 04:45:39;;;;;;;23.98;15.43;;;;;;;;;;5107569;28;20067;-77
2020/12/06 04:48:08;;;;;;;24.85;16.50;;;;;;;;;;5094154;28;20063;-77
2020/12/06 04:50:34;;;;;;;22.17;15.10;;;;;;;;;;5094004;28;20043;-77
2020/12/06 04:53:03;;;;;;;23.88;15.57;;;;;;;;;;5093947;28;20036;-78
2020/12/06 04:55:30;;;;;;;23.73;15.73;;;;;;;;;;5093435;28;20043;-77
2020/12/06 04:57:57;;;;;;;28.52;18.02;;;;;;;;;;5096748;28;20059;-77
2020/12/06 05:00:34;;;;;;;25.85;17.60;;;;;;;;;;5096594;28;20043;-77
2020/12/06 05:03:08;;;;;;;23.58;15.68;;;;;;;;;;5097561;28;20036;-77
2020/12/06 05:05:36;;;;;;;25.77;16.63;;;;;;;;;;5097410;28;20036;-77
2020/12/06 05:08:04;;;;;;;22.23;14.95;;;;;;;;;;5096318;28;20553;-77
2020/12/06 05:10:34;;;;;;;24.05;15.25;;;;;;;;;;5097235;28;20111;-77
2020/12/06 05:12:59;;;;;;;28.30;16.08;;;;;;;;;;5096660;28;20043;-77
2020/12/06 05:15:24;;;;;;;23.33;15.30;;;;;;;;;;5078222;28;20397;-77
2020/12/06 05:17:50;;;;;;;23.83;16.67;;;;;;;;;;5095117;28;20035;-77
2020/12/06 05:20:15;;;;;;;23.38;16.13;;;;;;;;;;5095531;28;20051;-77
2020/12/06 05:22:45;;;;;;;22.40;16.00;;;;;;;;;;5095939;28;20043;-77
2020/12/06 05:25:12;;;;;;;23.40;16.40;;;;;;;;;;5096084;28;20047;-77
2020/12/06 05:27:38;;;;;;;24.73;16.65;;;;;;;;;;5096341;28;20036;-77
2020/12/06 05:30:04;;;;;;;23.80;16.15;;;;;;;;;;5096438;28;20466;-77
2020/12/06 05:32:29;;;;;;;23.42;15.82;;;;;;;;;;5078402;28;20036;-77
2020/12/06 05:34:54;;;;;;;20.88;14.50;;;;;;;;;;5095382;28;20039;-77
2020/12/06 05:37:20;;;;;;;24.77;16.85;;;;;;;;;;5096101;28;20086;-76
2020/12/06 05:39:45;;;;;;;21.35;15.52;;;;;;;;;;5094294;28;20039;-76
2020/12/06 05:42:11;;;;;;;24.80;17.48;;;;;;;;;;5095728;28;20036;-76
2020/12/06 05:44:36;;;;;;;24.85;17.42;;;;;;;;;;5095633;28;20028;-76
2020/12/06 05:47:12;;;;;;;25.05;17.08;;;;;;;;;;5095855;28;20389;-76
2020/12/06 05:49:38;;;;;;;28.25;18.45;;;;;;;;;;5090479;28;20075;-76
2020/12/06 05:52:03;;;;;;;31.27;18.95;;;;;;;;;;5075390;28;20060;-76
2020/12/06 05:54:29;;;;;;;31.33;18.85;;;;;;;;;;5075391;28;20072;-76
2020/12/06 05:56:56;;;;;;;27.65;17.65;;;;;;;;;;5075222;28;20028;-76
2020/12/06 05:59:23;;;;;;;25.92;17.70;;;;;;;;;;5075323;28;20049;-76
2020/12/06 06:01:52;;;;;;;27.27;18.60;;;;;;;;;;5075099;28;20483;-76
2020/12/06 06:04:20;;;;;;;28.98;19.25;;;;;;;;;;5074933;28;20036;-76
2020/12/06 06:06:49;;;;;;;25.85;18.02;;;;;;;;;;5075312;28;20060;-76
2020/12/06 06:09:17;;;;;;;32.78;20.80;;;;;;;;;;5075105;28;20024;-76
2020/12/06 06:11:52;;;;;;;34.60;21.13;;;;;;;;;;5075344;28;20024;-76
2020/12/06 06:14:17;;;;;;;31.70;19.77;;;;;;;;;;5074938;28;20029;-76
2020/12/06 06:16:43;;;;;;;46.92;26.80;;;;;;;;;;5075266;28;20043;-76
2020/12/06 06:19:08;;;;;;;40.40;23.45;;;;;;;;;;5090549;28;20032;-76
2020/12/06 06:21:37;;;;;;;67.13;38.63;;;;;;;;;;5095401;28;20036;-76
2020/12/06 06:24:06;;;;;;;59.83;35.72;;;;;;;;;;5095116;28;20036;-76
2020/12/06 06:26:35;;;;;;;53.67;31.38;;;;;;;;;;5095131;28;20066;-76
2020/12/06 06:29:00;;;;;;;44.85;27.35;;;;;;;;;;5094916;28;20032;-76
2020/12/06 06:31:30;;;;;;;34.05;21.67;;;;;;;;;;5094740;28;20077;-76
2020/12/06 06:33:56;;;;;;;34.63;21.67;;;;;;;;;;5094738;28;20544;-76
2020/12/06 06:36:22;;;;;;;33.50;22.50;;;;;;;;;;5094957;28;20028;-76
2020/12/06 06:38:50;;;;;;;40.70;22.42;;;;;;;;;;5094865;28;20040;-76
2020/12/06 06:41:16;;;;;;;29.70;20.27;;;;;;;;;;5094750;28;20042;-76
2020/12/06 06:43:43;;;;;;;32.00;20.10;;;;;;;;;;5093616;28;20497;-77
2020/12/06 06:46:10;;;;;;;32.55;19.90;;;;;;;;;;5094683;28;20078;-77
2020/12/06 06:48:36;;;;;;;30.45;19.33;;;;;;;;;;5093126;28;20086;-77
2020/12/06 06:51:02;;;;;;;31.17;19.45;;;;;;;;;;5094452;28;20071;-76
2020/12/06 06:53:28;;;;;;;28.25;19.42;;;;;;;;;;5094707;28;20092;-77
2020/12/06 06:55:56;;;;;;;33.55;21.63;;;;;;;;;;5094618;28;20123;-76
2020/12/06 06:58:23;;;;;;;30.45;20.98;;;;;;;;;;5093077;28;20043;-76
2020/12/06 07:00:50;;;;;;;30.27;20.23;;;;;;;;;;5093418;28;20162;-76
2020/12/06 07:03:19;;;;;;;31.42;20.77;;;;;;;;;;5094259;28;20492;-76
2020/12/06 07:05:44;;;;;;;31.92;20.95;;;;;;;;;;5094110;28;20044;-76
2020/12/06 07:08:12;;;;;;;36.90;21.83;;;;;;;;;;5093205;28;20492;-76
2020/12/06 07:10:41;;;;;;;31.33;21.13;;;;;;;;;;5092911;28;20119;-76
2020/12/06 07:13:07;;;;;;;31.02;19.95;;;;;;;;;;5093113;28;20035;-76
2020/12/06 07:15:33;;;;;;;29.23;19.73;;;;;;;;;;5093977;28;20036;-76
2020/12/06 07:17:59;;;;;;;27.60;18.40;;;;;;;;;;5093908;28;20036;-76
2020/12/06 07:20:26;;;;;;;25.77;18.63;;;;;;;;;;5093847;28;20097;-77
2020/12/06 07:22:52;;;;;;;27.17;18.83;;;;;;;;;;5094413;28;20040;-76
2020/12/06 07:25:18;;;;;;;28.50;20.15;;;;;;;;;;5093969;28;20380;-75
2020/12/06 07:27:45;;;;;;;27.15;18.02;;;;;;;;;;5093607;28;20028;-76
2020/12/06 07:30:12;;;;;;;28.83;19.73;;;;;;;;;;5092386;28;20028;-76
2020/12/06 07:32:38;;;;;;;26.60;18.13;;;;;;;;;;5093877;28;20082;-76
2020/12/06 07:35:05;;;;;;;29.73;18.77;;;;;;;;;;5093757;28;20439;-76
2020/12/06 07:37:31;;;;;;;29.25;18.35;;;;;;;;;;5092578;28;20032;-77
2020/12/06 07:39:57;;;;;;;29.33;18.50;;;;;;;;;;5093868;28;20369;-77
2020/12/06 07:42:28;;;;;;;29.10;18.65;;;;;;;;;;5093754;28;20034;-76
2020/12/06 07:44:56;;;;;;;27.23;17.73;;;;;;;;;;5093659;28;20038;-76
2020/12/06 07:47:22;;;;;;;26.95;18.55;;;;;;;;;;5093625;28;20119;-76
2020/12/06 07:49:53;;;;;;;29.92;19.73;;;;;;;;;;5093302;28;20126;-76
2020/12/06 07:52:23;;;;;;;31.13;20.58;;;;;;;;;;5093478;28;20482;-76
2020/12/06 07:55:09;;;;;;;31.58;20.58;;;;;;;;;;5093453;28;20044;-76
2020/12/06 07:57:40;;;;;;;29.98;19.88;;;;;;;;;;5093565;28;20040;-74
2020/12/06 08:00:20;;;;;;;28.52;18.55;;;;;;;;;;5093024;28;20043;-75
2020/12/06 08:02:53;;;;;;;27.33;19.15;;;;;;;;;;5091159;28;20039;-76
2020/12/06 08:05:21;;;;;;;25.42;18.27;;;;;;;;;;5093307;28;20036;-77
2020/12/06 08:08:09;;;;;;;27.80;19.33;;;;;;;;;;5093993;28;20035;-76
2020/12/06 08:10:36;;;;;;;27.38;19.00;;;;;;;;;;5093461;28;20040;-75
2020/12/06 08:13:01;;;;;;;27.02;17.67;;;;;;;;;;5093933;28;20534;-76
2020/12/06 08:15:29;;;;;;;28.65;19.35;;;;;;;;;;5093338;28;20024;-76
2020/12/06 08:17:55;;;;;;;26.52;17.92;;;;;;;;;;5093636;28;20497;-81
2020/12/06 08:20:22;;;;;;;27.05;18.25;;;;;;;;;;5095966;28;20043;-80
2020/12/06 08:22:56;;;;;;;23.80;17.83;;;;;;;;;;5094137;28;20062;-80
2020/12/06 08:25:29;;;;;;;25.70;17.92;;;;;;;;;;5095579;28;20036;-81
2020/12/06 08:27:59;;;;;;;24.63;18.10;;;;;;;;;;5094200;28;20032;-80
2020/12/06 08:30:27;;;;;;;28.23;18.92;;;;;;;;;;5094066;28;20028;-79
2020/12/06 08:32:57;;;;;;;28.83;18.35;;;;;;;;;;5099096;28;20122;-79
2020/12/06 08:35:43;;;;;;;28.83;19.63;;;;;;;;;;5097514;28;20028;-79
2020/12/06 08:38:18;;;;;;;30.75;19.70;;;;;;;;;;5099353;28;20486;-79
2020/12/06 08:41:02;;;;;;;26.25;18.48;;;;;;;;;;5099011;28;20038;-79
2020/12/06 08:44:01;;;;;;;27.02;18.17;;;;;;;;;;5097473;28;20032;-77
2020/12/06 08:46:26;;;;;;;27.77;18.73;;;;;;;;;;5099173;28;20040;-78
2020/12/06 08:48:53;;;;;;;30.63;19.90;;;;;;;;;;5099399;28;20078;-78
2020/12/06 08:51:33;;;;;;;25.17;17.63;;;;;;;;;;5118542;28;20071;-78
2020/12/06 08:54:01;;;;;;;28.10;18.67;;;;;;;;;;5116428;28;20507;-77
2020/12/06 08:56:30;;;;;;;24.95;17.30;;;;;;;;;;5117453;28;20026;-77
2020/12/06 08:59:00;;;;;;;28.80;18.23;;;;;;;;;;5117078;28;20054;-76
2020/12/06 09:01:26;;;;;;;30.60;20.05;;;;;;;;;;5116126;28;20035;-78
2020/12/06 09:03:51;;;;;;;36.35;22.95;;;;;;;;;;5117843;28;20389;-76
2020/12/06 09:06:17;;;;;;;38.28;24.52;;;;;;;;;;5117231;28;20084;-77
2020/12/06 09:08:43;;;;;;;37.13;23.67;;;;;;;;;;5118027;28;20035;-77
2020/12/06 09:11:16;;;;;;;31.30;21.52;;;;;;;;;;5117409;28;20035;-76
2020/12/06 09:13:42;;;;;;;34.72;22.77;;;;;;;;;;5117241;28;20063;-77
2020/12/06 09:16:07;;;;;;;39.03;24.77;;;;;;;;;;5117374;28;20047;-77
2020/12/06 09:18:33;;;;;;;35.63;23.42;;;;;;;;;;5115866;28;20039;-76
2020/12/06 09:20:58;;;;;;;32.47;21.20;;;;;;;;;;5097115;28;20038;-75
2020/12/06 09:23:24;;;;;;;30.02;20.85;;;;;;;;;;5096333;28;20036;-77
2020/12/06 09:25:49;;;;;;;26.10;19.35;;;;;;;;;;5097802;28;20077;-78
2020/12/06 09:28:15;;;;;;;27.63;19.85;;;;;;;;;;5097849;28;20169;-79
2020/12/06 09:30:43;;;;;;;25.20;18.08;;;;;;;;;;5099365;28;20182;-77
2020/12/06 09:33:08;;;;;;;29.90;20.40;;;;;;;;;;5096374;28;20032;-77
2020/12/06 09:35:33;;;;;;;30.02;21.08;;;;;;;;;;5097147;28;20063;-79
2020/12/06 09:37:59;;;;;;;30.02;19.27;;;;;;;;;;5096815;28;20068;-76
2020/12/06 09:40:24;;;;;;;27.60;19.30;;;;;;;;;;5096378;28;20039;-77
2020/12/06 09:42:49;;;;;;;28.38;19.80;;;;;;;;;;5096093;28;20428;-77
2020/12/06 09:45:15;;;;;;;27.00;18.92;;;;;;;;;;5095868;28;20051;-77
2020/12/06 09:47:40;;;;;;;25.70;18.00;;;;;;;;;;5095585;28;20658;-77
2020/12/06 09:50:06;;;;;;;26.30;17.85;;;;;;;;;;5096295;28;20457;-78
2020/12/06 09:52:31;;;;;;;23.83;17.38;;;;;;;;;;5096420;28;20032;-77
2020/12/06 09:54:56;;;;;;;25.08;17.65;;;;;;;;;;5096255;28;20079;-78
2020/12/06 09:57:22;;;;;;;23.50;17.42;;;;;;;;;;5096689;28;20036;-76
2020/12/06 09:59:48;;;;;;;28.33;19.25;;;;;;;;;;5095586;28;20105;-76
2020/12/06 10:02:13;;;;;;;31.40;19.70;;;;;;;;;;5096125;28;20036;-76
2020/12/06 10:04:38;;;;;;;25.85;18.88;;;;;;;;;;5095738;28;20101;-77
2020/12/06 10:07:04;;;;;;;24.50;18.20;;;;;;;;;;5095481;28;20078;-76
2020/12/06 10:09:31;;;;;;;28.80;19.80;;;;;;;;;;5095604;28;20035;-77
2020/12/06 10:11:56;;;;;;;27.67;19.60;;;;;;;;;;5096534;28;20032;-76
2020/12/06 10:14:21;;;;;;;30.10;20.92;;;;;;;;;;5095173;28;20054;-76
2020/12/06 10:16:48;;;;;;;28.65;20.80;;;;;;;;;;5090085;28;20043;-76
2020/12/06 10:19:13;;;;;;;29.35;20.67;;;;;;;;;;5074986;28;20045;-77
2020/12/06 10:21:38;;;;;;;30.38;21.10;;;;;;;;;;5074728;28;20044;-76
2020/12/06 10:24:04;;;;;;;34.70;23.55;;;;;;;;;;5074352;28;20063;-77
2020/12/06 10:26:29;;;;;;;31.40;22.52;;;;;;;;;;5074821;28;20033;-76
2020/12/06 10:28:57;;;;;;;30.95;22.02;;;;;;;;;;5074665;28;20075;-77
2020/12/06 10:31:23;;;;;;;31.20;22.40;;;;;;;;;;5074121;28;20072;-77
2020/12/06 10:33:48;;;;;;;30.20;20.75;;;;;;;;;;5074717;28;20068;-77
2020/12/06 10:36:14;;;;;;;30.33;20.80;;;;;;;;;;5074403;28;20039;-77
2020/12/06 10:38:39;;;;;;;29.27;20.95;;;;;;;;;;5074269;28;20032;-76
2020/12/06 10:41:05;;;;;;;27.85;19.73;;;;;;;;;;5074432;28;20113;-76
2020/12/06 10:43:31;;;;;;;24.38;17.83;;;;;;;;;;5074353;28;20043;-76
2020/12/06 10:45:56;;;;;;;29.40;19.58;;;;;;;;;;5074299;28;20032;-76
2020/12/06 10:48:22;;;;;;;28.83;19.67;;;;;;;;;;5091748;28;20401;-76
2020/12/06 10:50:52;;;;;;;24.50;18.27;;;;;;;;;;5094348;28;20028;-76
2020/12/06 10:53:17;;;;;;;27.90;19.98;;;;;;;;;;5094361;28;20044;-76
2020/12/06 10:55:42;;;;;;;28.92;20.40;;;;;;;;;;5093843;28;20058;-77
2020/12/06 10:58:08;;;;;;;30.85;20.90;;;;;;;;;;5094238;28;20036;-77
2020/12/06 11:00:33;;;;;;;36.85;23.42;;;;;;;;;;5094161;28;20040;-76
2020/12/06 11:02:58;;;;;;;30.55;21.75;;;;;;;;;;5094133;28;20130;-76
2020/12/06 11:05:24;;;;;;;31.58;21.83;;;;;;;;;;5093882;28;20548;-76
2020/12/06 11:07:49;;;;;;;29.45;21.48;;;;;;;;;;5094406;28;20044;-76
2020/12/06 11:10:14;;;;;;;25.52;18.42;;;;;;;;;;5094510;28;20400;-78
2020/12/06 11:12:40;;;;;;;29.83;19.92;;;;;;;;;;5094257;28;20036;-77
2020/12/06 11:15:05;;;;;;;34.85;20.95;;;;;;;;;;5092324;28;20032;-76
2020/12/06 11:17:30;;;;;;;27.10;20.35;;;;;;;;;;5094271;28;20054;-75
2020/12/06 11:19:58;;;;;;;31.10;21.40;;;;;;;;;;5093867;28;20036;-77
2020/12/06 11:22:23;;;;;;;30.27;21.63;;;;;;;;;;5094102;28;20036;-76
2020/12/06 11:24:48;;;;;;;34.20;23.75;;;;;;;;;;5095613;28;20043;-77
2020/12/06 11:27:14;;;;;;;38.55;24.45;;;;;;;;;;5095105;28;20036;-79
2020/12/06 11:29:39;;;;;;;34.03;24.08;;;;;;;;;;5094292;28;20036;-77
2020/12/06 11:32:05;;;;;;;32.00;22.73;;;;;;;;;;5096275;28;20036;-78
2020/12/06 11:34:30;;;;;;;40.58;27.60;;;;;;;;;;5095741;28;20035;-79
2020/12/06 11:36:55;;;;;;;35.55;25.33;;;;;;;;;;5095318;28;20040;-78
2020/12/06 11:39:21;;;;;;;31.65;22.67;;;;;;;;;;5095109;28;20040;-77
2020/12/06 11:41:46;;;;;;;40.38;26.55;;;;;;;;;;5094372;28;20384;-77
2020/12/06 11:44:11;;;;;;;36.55;24.85;;;;;;;;;;5097646;28;20448;-81
2020/12/06 11:46:37;;;;;;;33.97;23.48;;;;;;;;;;5095342;28;20386;-78
2020/12/06 11:49:02;;;;;;;38.00;25.00;;;;;;;;;;5094995;28;20035;-77
2020/12/06 11:51:27;;;;;;;38.78;24.23;;;;;;;;;;5094411;28;20044;-76
2020/12/06 11:53:53;;;;;;;35.10;24.35;;;;;;;;;;5095893;28;20032;-76
2020/12/06 11:56:18;;;;;;;34.28;22.77;;;;;;;;;;5093616;28;20047;-76
2020/12/06 11:58:46;;;;;;;34.63;22.55;;;;;;;;;;5093048;28;20068;-76
2020/12/06 12:01:12;;;;;;;35.00;22.20;;;;;;;;;;5093457;28;20111;-76
2020/12/06 12:03:37;;;;;;;30.50;21.27;;;;;;;;;;5093453;28;20135;-76
2020/12/06 12:06:03;;;;;;;29.83;21.00;;;;;;;;;;5096293;28;20447;-76
2020/12/06 12:08:29;;;;;;;36.08;24.45;;;;;;;;;;5100785;28;20077;-76
2020/12/06 12:10:55;;;;;;;34.63;23.80;;;;;;;;;;5100367;28;20373;-76
2020/12/06 12:13:20;;;;;;;35.05;23.17;;;;;;;;;;5100809;28;20032;-76
2020/12/06 12:15:46;;;;;;;36.03;23.33;;;;;;;;;;5100042;28;20438;-75
2020/12/06 12:18:11;;;;;;;38.92;26.25;;;;;;;;;;5100151;28;20039;-76
2020/12/06 12:20:36;;;;;;;43.78;26.10;;;;;;;;;;5100049;28;20055;-76
2020/12/06 12:23:02;;;;;;;39.92;26.33;;;;;;;;;;5100520;28;20043;-75
2020/12/06 12:25:27;;;;;;;40.17;27.20;;;;;;;;;;5099984;28;20063;-75
2020/12/06 12:27:52;;;;;;;40.08;26.58;;;;;;;;;;5100527;28;20043;-76
2020/12/06 12:30:18;;;;;;;39.47;27.52;;;;;;;;;;5099658;28;20128;-76
2020/12/06 12:32:43;;;;;;;37.13;25.70;;;;;;;;;;5100268;28;20064;-76
2020/12/06 12:35:08;;;;;;;36.50;25.48;;;;;;;;;;5100271;28;20040;-78
2020/12/06 12:37:34;;;;;;;38.55;25.63;;;;;;;;;;5098676;28;20039;-76
2020/12/06 12:39:59;;;;;;;37.97;25.80;;;;;;;;;;5099258;28;20042;-74
2020/12/06 12:42:28;;;;;;;40.50;25.70;;;;;;;;;;5099092;28;20055;-73
2020/12/06 12:44:53;;;;;;;35.38;23.77;;;;;;;;;;5099306;28;20086;-75
2020/12/06 12:47:18;;;;;;;35.47;23.70;;;;;;;;;;5100533;28;20047;-76
2020/12/06 12:49:44;;;;;;;39.63;25.60;;;;;;;;;;5099665;28;20111;-74
2020/12/06 12:52:09;;;;;;;34.88;24.83;;;;;;;;;;5099772;28;20054;-74
2020/12/06 12:54:34;;;;;;;34.47;23.20;;;;;;;;;;5099978;28;20408;-75
2020/12/06 12:57:03;;;;;;;32.40;23.23;;;;;;;;;;5099272;28;20032;-74
2020/12/06 12:59:28;;;;;;;35.85;25.10;;;;;;;;;;5100360;28;20052;-75
2020/12/06 13:01:54;;;;;;;38.17;24.73;;;;;;;;;;5100057;28;20047;-74
2020/12/06 13:04:19;;;;;;;47.95;30.10;;;;;;;;;;5099297;28;20481;-75
2020/12/06 13:06:48;;;;;;;44.45;27.83;;;;;;;;;;5099862;28;20036;-75
2020/12/06 13:09:14;;;;;;;45.22;28.70;;;;;;;;;;5099565;28;20057;-75
2020/12/06 13:11:39;;;;;;;39.38;25.20;;;;;;;;;;5099483;28;20040;-75
2020/12/06 13:14:05;;;;;;;41.75;26.58;;;;;;;;;;5099487;28;20127;-75
2020/12/06 13:16:33;;;;;;;42.10;27.55;;;;;;;;;;5098513;28;20727;-75
2020/12/06 13:18:58;;;;;;;40.58;27.77;;;;;;;;;;5095180;28;20048;-75
2020/12/06 13:21:23;;;;;;;39.83;27.15;;;;;;;;;;5095961;28;20081;-75
2020/12/06 13:23:49;;;;;;;43.95;29.92;;;;;;;;;;5096134;28;20036;-75
2020/12/06 13:26:16;;;;;;;41.95;28.30;;;;;;;;;;5095888;28;20131;-74
2020/12/06 13:28:41;;;;;;;45.60;29.60;;;;;;;;;;5095026;28;20405;-75
2020/12/06 13:31:07;;;;;;;43.75;28.60;;;;;;;;;;5095902;28;20058;-75
2020/12/06 13:33:32;;;;;;;40.70;27.13;;;;;;;;;;5095885;28;20059;-76
2020/12/06 13:35:58;;;;;;;42.33;28.13;;;;;;;;;;5095688;28;20035;-75
2020/12/06 13:38:23;;;;;;;39.13;26.90;;;;;;;;;;5095830;28;20474;-75
2020/12/06 13:40:48;;;;;;;41.63;26.33;;;;;;;;;;5095803;28;20035;-74
2020/12/06 13:43:14;;;;;;;37.25;25.58;;;;;;;;;;5095765;28;20032;-75
2020/12/06 13:45:39;;;;;;;40.38;27.02;;;;;;;;;;5095677;28;20032;-75
2020/12/06 13:48:04;;;;;;;39.60;27.42;;;;;;;;;;5095884;28;20440;-75
2020/12/06 13:50:30;;;;;;;46.47;30.13;;;;;;;;;;5095475;28;20560;-76
2020/12/06 13:52:55;;;;;;;48.25;29.65;;;;;;;;;;5095621;28;20036;-74
2020/12/06 13:55:20;;;;;;;47.13;30.17;;;;;;;;;;5095468;28;20016;-75
2020/12/06 13:57:46;;;;;;;48.10;31.33;;;;;;;;;;5095769;28;20363;-76
2020/12/06 14:00:12;;;;;;;45.55;30.67;;;;;;;;;;5095650;28;20052;-76
2020/12/06 14:02:40;;;;;;;55.55;35.05;;;;;;;;;;5095701;28;20045;-76
2020/12/06 14:05:05;;;;;;;51.00;33.38;;;;;;;;;;5095069;28;20592;-76
2020/12/06 14:07:32;;;;;;;47.85;31.35;;;;;;;;;;5095461;28;20036;-75
2020/12/06 14:09:58;;;;;;;46.85;29.70;;;;;;;;;;5094314;28;20051;-76
2020/12/06 14:12:23;;;;;;;44.55;28.30;;;;;;;;;;5095331;28;20028;-76